createdAt,value
2023-04-09T00:01:53.510Z,100767.53
2023-04-09T00:04:25.116Z,100762.84
2023-04-09T00:06:56.276Z,100767.17
2023-04-09T00:09:27.542Z,100764.73
2023-04-09T00:11:57.322Z,100763.87
2023-04-09T00:14:25.775Z,100764.38
2023-04-09T00:16:54.930Z,100764.73
2023-04-09T00:19:25.740Z,100756.59
2023-04-09T00:21:54.297Z,100749.85
2023-04-09T00:24:32.581Z,100748.98
2023-04-09T00:27:01.272Z,100750.70
2023-04-09T00:29:29.851Z,100753.14
2023-04-09T00:31:58.674Z,100751.74
2023-04-09T00:34:28.691Z,100748.45
2023-04-09T00:37:09.372Z,100750.54
2023-04-09T00:39:37.798Z,100751.59
2023-04-09T00:42:06.422Z,100751.06
2023-04-09T00:44:35.404Z,100747.08
2023-04-09T00:47:04.669Z,100746.91
2023-04-09T00:49:33.940Z,100740.34
2023-04-09T00:52:02.505Z,100738.08
2023-04-09T00:54:31.145Z,100737.19
2023-04-09T00:57:00.996Z,100736.85
2023-04-09T00:59:29.494Z,100737.01
2023-04-09T01:01:58.347Z,100737.02
2023-04-09T01:04:42.291Z,100739.95
2023-04-09T01:07:20.730Z,100739.79
2023-04-09T01:10:09.490Z,100744.80
2023-04-09T01:12:54.353Z,100748.60
2023-04-09T01:15:38.349Z,100751.02
2023-04-09T01:18:15.659Z,100748.92
2023-04-09T01:21:00.925Z,100748.05
2023-04-09T01:23:55.182Z,100749.44
2023-04-09T01:27:05.102Z,100750.11
2023-04-09T01:29:51.898Z,100748.73
2023-04-09T01:32:22.623Z,100749.08
2023-04-09T01:34:58.543Z,100749.42
2023-04-09T01:37:47.546Z,100750.64
2023-04-09T01:40:33.810Z,100750.13
2023-04-09T01:43:07.862Z,100746.31
2023-04-09T01:45:36.710Z,100746.66
2023-04-09T01:48:26.708Z,100747.37
2023-04-09T01:51:00.032Z,100748.59
2023-04-09T01:53:30.599Z,100750.54
2023-04-09T01:56:02.450Z,100744.65
2023-04-09T01:58:34.230Z,100750.73
2023-04-09T02:01:16.107Z,100753.52
2023-04-09T02:03:55.045Z,100755.25
2023-04-09T02:06:30.177Z,100753.88
2023-04-09T02:09:18.658Z,100750.07
2023-04-09T02:11:58.477Z,100744.51
2023-04-09T02:14:31.268Z,100742.77
2023-04-09T02:17:01.601Z,100741.56
2023-04-09T02:19:59.700Z,100737.06
2023-04-09T02:22:34.195Z,100732.39
2023-04-09T02:25:09.847Z,100730.82
2023-04-09T02:27:41.388Z,100727.37
2023-04-09T02:30:13.216Z,100720.79
2023-04-09T02:32:42.342Z,100719.23
2023-04-09T02:35:16.178Z,100714.89
2023-04-09T02:37:57.444Z,100714.73
2023-04-09T02:40:26.726Z,100714.71
2023-04-09T02:42:58.342Z,100716.63
2023-04-09T02:45:31.413Z,100716.45
2023-04-09T02:48:03.417Z,100719.05
2023-04-09T02:50:37.848Z,100714.88
2023-04-09T02:53:35.667Z,100713.33
2023-04-09T02:56:04.691Z,100712.81
2023-04-09T02:58:40.868Z,100709.17
2023-04-09T03:01:09.340Z,100710.02
2023-04-09T03:03:40.480Z,100707.09
2023-04-09T03:06:12.121Z,100703.28
2023-04-09T03:08:40.852Z,100703.78
2023-04-09T03:11:12.320Z,100705.70
2023-04-09T03:13:56.524Z,100707.61
2023-04-09T03:16:26.671Z,100708.13
2023-04-09T03:18:55.067Z,100703.80
2023-04-09T03:21:25.838Z,100704.14
2023-04-09T03:23:57.143Z,100702.92
2023-04-09T03:26:25.893Z,100706.40
2023-04-09T03:28:57.223Z,100708.66
2023-04-09T03:31:26.270Z,100710.56
2023-04-09T03:33:57.644Z,100710.55
2023-04-09T03:36:28.569Z,100707.27
2023-04-09T03:39:11.767Z,100705.70
2023-04-09T03:41:46.651Z,100706.40
2023-04-09T03:44:14.965Z,100704.66
2023-04-09T03:46:43.424Z,100702.93
2023-04-09T03:49:11.743Z,100701.73
2023-04-09T03:51:40.110Z,100702.42
2023-04-09T03:54:09.102Z,100696.00
2023-04-09T03:56:37.536Z,100700.16
2023-04-09T03:59:17.410Z,100700.86
2023-04-09T04:01:46.137Z,100699.12
2023-04-09T04:04:17.324Z,100701.20
2023-04-09T04:06:45.924Z,100702.07
2023-04-09T04:09:19.431Z,100700.52
2023-04-09T04:11:51.610Z,100702.41
2023-04-09T04:14:22.578Z,100703.45
2023-04-09T04:16:54.488Z,100703.80
2023-04-09T04:19:22.894Z,100703.45
2023-04-09T04:21:51.229Z,100704.13
2023-04-09T04:24:19.995Z,100701.35
2023-04-09T04:26:51.370Z,100702.22
2023-04-09T04:29:22.519Z,100698.94
2023-04-09T04:31:54.519Z,100704.64
2023-04-09T04:34:25.777Z,100702.90
2023-04-09T04:36:54.410Z,100704.45
2023-04-09T04:39:23.073Z,100706.88
2023-04-09T04:41:52.079Z,100707.05
2023-04-09T04:44:21.043Z,100707.21
2023-04-09T04:46:50.725Z,100707.90
2023-04-09T04:49:19.198Z,100706.68
2023-04-09T04:51:47.909Z,100715.19
2023-04-09T04:54:17.021Z,100718.14
2023-04-09T04:56:52.755Z,100723.70
2023-04-09T04:59:21.166Z,100730.13
2023-04-09T05:01:49.905Z,100732.73
2023-04-09T05:04:19.609Z,100727.71
2023-04-09T05:07:02.592Z,100722.16
2023-04-09T05:09:31.291Z,100721.12
2023-04-09T05:12:03.380Z,100718.70
2023-04-09T05:14:41.366Z,100716.60
2023-04-09T05:17:12.185Z,100718.33
2023-04-09T05:19:40.771Z,100711.73
2023-04-09T05:22:09.579Z,100710.34
2023-04-09T05:24:37.829Z,100713.45
2023-04-09T05:27:19.644Z,100711.86
2023-04-09T05:29:48.985Z,100713.07
2023-04-09T05:32:20.794Z,100714.09
2023-04-09T05:34:49.151Z,100710.95
2023-04-09T05:37:17.350Z,100710.93
2023-04-09T05:39:48.503Z,100707.30
2023-04-09T05:42:17.597Z,100706.58
2023-04-09T05:44:51.502Z,100703.79
2023-04-09T05:47:20.424Z,100704.83
2023-04-09T05:49:57.739Z,100710.36
2023-04-09T05:52:27.093Z,100718.34
2023-04-09T05:55:01.348Z,100718.87
2023-04-09T05:57:32.461Z,100722.16
2023-04-09T06:00:01.344Z,100720.27
2023-04-09T06:02:33.064Z,100720.10
2023-04-09T06:05:02.183Z,100720.63
2023-04-09T06:07:53.667Z,100722.38
2023-04-09T06:10:22.577Z,100720.66
2023-04-09T06:13:00.307Z,100720.83
2023-04-09T06:15:29.293Z,100723.06
2023-04-09T06:18:00.367Z,100726.70
2023-04-09T06:20:29.086Z,100722.89
2023-04-09T06:22:57.397Z,100722.88
2023-04-09T06:25:26.412Z,100726.87
2023-04-09T06:27:58.118Z,100725.48
2023-04-09T06:30:39.382Z,100728.10
2023-04-09T06:33:13.417Z,100729.77
2023-04-09T06:35:44.697Z,100729.05
2023-04-09T06:38:13.493Z,100726.61
2023-04-09T06:40:42.544Z,100723.64
2023-04-09T06:43:11.518Z,100722.75
2023-04-09T06:45:50.101Z,100725.19
2023-04-09T06:48:18.511Z,100729.52
2023-04-09T06:50:47.395Z,100733.34
2023-04-09T06:53:16.556Z,100734.89
2023-04-09T06:55:48.324Z,100738.67
2023-04-09T06:58:17.296Z,100739.17
2023-04-09T07:00:45.727Z,100738.27
2023-04-09T07:03:16.307Z,100742.56
2023-04-09T07:05:45.556Z,100745.66
2023-04-09T07:08:17.488Z,100747.19
2023-04-09T07:10:47.654Z,100746.98
2023-04-09T07:13:33.727Z,100751.96
2023-04-09T07:16:02.289Z,100748.81
2023-04-09T07:18:31.436Z,100746.21
2023-04-09T07:21:02.703Z,100750.21
2023-04-09T07:24:22.659Z,100748.34
2023-04-09T07:26:54.026Z,100744.16
2023-04-09T07:29:22.808Z,100744.02
2023-04-09T07:31:52.429Z,100748.38
2023-04-09T07:34:31.108Z,100746.81
2023-04-09T07:37:03.307Z,100748.19
2023-04-09T07:39:52.000Z,100744.88
2023-04-09T07:42:59.735Z,100742.76
2023-04-09T07:45:31.229Z,100742.20
2023-04-09T07:48:13.030Z,100739.73
2023-04-09T07:50:45.394Z,100742.64
2023-04-09T07:53:14.559Z,100739.81
2023-04-09T07:55:51.659Z,100742.56
2023-04-09T07:58:20.363Z,100743.44
2023-04-09T08:00:51.755Z,100746.92
2023-04-09T08:03:23.001Z,100747.48
2023-04-09T08:05:52.082Z,100753.04
2023-04-09T08:08:21.976Z,100757.56
2023-04-09T08:10:50.942Z,100755.47
2023-04-09T08:13:20.844Z,100754.75
2023-04-09T08:15:53.341Z,100758.39
2023-04-09T08:18:33.343Z,100760.10
2023-04-09T08:21:06.311Z,100757.33
2023-04-09T08:24:10.213Z,100760.29
2023-04-09T08:26:58.107Z,100763.55
2023-04-09T08:29:32.222Z,100761.25
2023-04-09T08:32:02.962Z,100767.45
2023-04-09T08:34:31.694Z,100766.55
2023-04-09T08:37:06.622Z,100766.20
2023-04-09T08:39:37.916Z,100766.70
2023-04-09T08:42:07.462Z,100769.41
2023-04-09T08:44:41.769Z,100770.77
2023-04-09T08:47:14.788Z,100774.05
2023-04-09T08:49:59.559Z,100766.91
2023-04-09T08:52:35.498Z,100769.79
2023-04-09T08:55:03.802Z,100769.34
2023-04-09T08:57:37.883Z,100771.54
2023-04-09T09:00:08.222Z,100763.34
2023-04-09T09:02:36.824Z,100771.02
2023-04-09T09:05:06.882Z,100768.66
2023-04-09T09:08:13.567Z,100776.53
2023-04-09T09:10:44.504Z,100775.48
2023-04-09T09:13:23.159Z,100779.45
2023-04-09T09:15:55.478Z,100778.75
2023-04-09T09:18:39.368Z,100779.54
2023-04-09T09:21:15.987Z,100787.30
2023-04-09T09:23:46.157Z,100784.97
2023-04-09T09:26:16.711Z,100784.19
2023-04-09T09:28:49.733Z,100780.95
2023-04-09T09:31:20.308Z,100780.61
2023-04-09T09:33:49.346Z,100780.42
2023-04-09T09:36:34.869Z,100772.05
2023-04-09T09:39:10.577Z,100776.42
2023-04-09T09:41:43.631Z,100783.30
2023-04-09T09:44:31.384Z,100784.80
2023-04-09T09:47:01.051Z,100783.17
2023-04-09T09:49:30.188Z,100786.95
2023-04-09T09:52:03.183Z,100784.24
2023-04-09T09:54:42.768Z,100785.86
2023-04-09T09:57:13.905Z,100786.83
2023-04-09T09:59:44.438Z,100784.80
2023-04-09T10:02:19.661Z,100782.87
2023-04-09T10:04:53.049Z,100777.33
2023-04-09T10:07:24.146Z,100771.89
2023-04-09T10:09:56.802Z,100771.65
2023-04-09T10:12:26.538Z,100769.19
2023-04-09T10:15:06.365Z,100768.53
2023-04-09T10:17:37.216Z,100764.98
2023-04-09T10:20:19.131Z,100761.92
2023-04-09T10:22:53.129Z,100756.98
2023-04-09T10:25:22.549Z,100759.38
2023-04-09T10:28:02.512Z,100758.88
2023-04-09T10:30:35.403Z,100754.50
2023-04-09T10:33:26.536Z,100755.23
2023-04-09T10:36:00.105Z,100752.45
2023-04-09T10:38:58.164Z,100748.80
2023-04-09T10:41:38.536Z,100746.92
2023-04-09T10:44:38.393Z,100748.45
2023-04-09T10:47:07.054Z,100745.10
2023-04-09T10:49:45.052Z,100741.86
2023-04-09T10:52:16.025Z,100738.81
2023-04-09T10:54:46.553Z,100740.96
2023-04-09T10:57:18.312Z,100739.01
2023-04-09T10:59:56.413Z,100739.19
2023-04-09T11:02:59.756Z,100737.10
2023-04-09T11:05:35.799Z,100735.60
2023-04-09T11:08:14.506Z,100732.19
2023-04-09T11:10:51.894Z,100728.45
2023-04-09T11:13:31.433Z,100724.81
2023-04-09T11:16:01.615Z,100721.27
2023-04-09T11:18:41.383Z,100722.66
2023-04-09T11:21:17.362Z,100717.50
2023-04-09T11:23:52.816Z,100711.31
2023-04-09T11:26:47.399Z,100711.02
2023-04-09T11:29:15.801Z,100712.40
2023-04-09T11:31:53.525Z,100711.84
2023-04-09T11:34:28.275Z,100712.26
2023-04-09T11:36:59.318Z,100713.29
2023-04-09T11:39:31.194Z,100710.02
2023-04-09T11:42:12.492Z,100709.92
2023-04-09T11:44:50.540Z,100708.39
2023-04-09T11:47:23.709Z,100705.72
2023-04-09T11:49:52.018Z,100704.66
2023-04-09T11:52:20.915Z,100704.72
2023-04-09T11:54:52.743Z,100707.23
2023-04-09T11:57:24.472Z,100706.10
2023-04-09T12:00:25.382Z,100707.48
2023-04-09T12:03:22.111Z,100706.64
2023-04-09T12:05:51.335Z,100703.75
2023-04-09T12:08:24.544Z,100708.30
2023-04-09T12:10:53.908Z,100709.58
2023-04-09T12:13:22.462Z,100706.13
2023-04-09T12:15:51.658Z,100698.27
2023-04-09T12:18:23.563Z,100691.85
2023-04-09T12:20:51.852Z,100690.84
2023-04-09T12:23:20.310Z,100692.42
2023-04-09T12:25:51.443Z,100693.17
2023-04-09T12:28:23.377Z,100691.84
2023-04-09T12:30:51.956Z,100690.69
2023-04-09T12:33:44.062Z,100690.11
2023-04-09T12:36:12.654Z,100691.01
2023-04-09T12:38:41.210Z,100687.38
2023-04-09T12:41:09.788Z,100684.52
2023-04-09T12:43:38.916Z,100686.85
2023-04-09T12:46:07.597Z,100684.91
2023-04-09T12:48:43.465Z,100683.30
2023-04-09T12:51:21.098Z,100678.99
2023-04-09T12:53:50.067Z,100677.62
2023-04-09T12:56:18.636Z,100675.79
2023-04-09T12:58:54.433Z,100676.93
2023-04-09T13:01:23.050Z,100673.41
2023-04-09T13:03:52.202Z,100674.91
2023-04-09T13:06:41.781Z,100674.28
2023-04-09T13:09:10.032Z,100675.63
2023-04-09T13:11:41.021Z,100672.99
2023-04-09T13:14:13.677Z,100673.77
2023-04-09T13:16:42.038Z,100670.93
2023-04-09T13:19:10.794Z,100673.67
2023-04-09T13:21:39.846Z,100669.29
2023-04-09T13:24:09.765Z,100670.23
2023-04-09T13:26:38.609Z,100672.20
2023-04-09T13:29:08.403Z,100672.57
2023-04-09T13:31:37.456Z,100671.02
2023-04-09T13:34:06.681Z,100663.14
2023-04-09T13:36:34.907Z,100661.70
2023-04-09T13:39:06.191Z,100658.45
2023-04-09T13:41:34.512Z,100659.41
2023-04-09T13:44:04.728Z,100660.05
2023-04-09T13:46:33.753Z,100658.48
2023-04-09T13:49:13.188Z,100657.46
2023-04-09T13:52:02.155Z,100652.30
2023-04-09T13:54:31.216Z,100650.54
2023-04-09T13:57:08.775Z,100649.05
2023-04-09T13:59:45.999Z,100643.73
2023-04-09T14:02:14.929Z,100645.77
2023-04-09T14:04:43.760Z,100642.03
2023-04-09T14:07:12.188Z,100635.48
2023-04-09T14:09:41.253Z,100637.08
2023-04-09T14:12:09.553Z,100636.12
2023-04-09T14:14:38.152Z,100634.40
2023-04-09T14:17:06.783Z,100632.90
2023-04-09T14:19:39.569Z,100637.13
2023-04-09T14:22:09.133Z,100634.76
2023-04-09T14:24:40.302Z,100635.02
2023-04-09T14:27:09.766Z,100631.84
2023-04-09T14:29:38.249Z,100631.13
2023-04-09T14:32:06.643Z,100626.99
2023-04-09T14:34:35.419Z,100627.17
2023-04-09T14:37:06.511Z,100627.48
2023-04-09T14:39:56.201Z,100624.55
2023-04-09T14:42:24.602Z,100625.27
2023-04-09T14:44:53.360Z,100623.39
2023-04-09T14:47:21.680Z,100626.38
2023-04-09T14:49:50.244Z,100628.29
2023-04-09T14:52:22.037Z,100627.94
2023-04-09T14:54:51.199Z,100628.73
2023-04-09T14:57:19.601Z,100624.53
2023-04-09T14:59:48.199Z,100630.83
2023-04-09T15:02:17.718Z,100625.00
2023-04-09T15:04:46.505Z,100623.78
2023-04-09T15:07:15.751Z,100624.08
2023-04-09T15:10:07.539Z,100620.77
2023-04-09T15:12:39.082Z,100620.45
2023-04-09T15:15:08.800Z,100617.89
2023-04-09T15:18:00.351Z,100622.06
2023-04-09T15:20:29.972Z,100622.10
2023-04-09T15:23:10.919Z,100623.66
2023-04-09T15:26:43.380Z,100627.72
2023-04-09T15:29:32.495Z,100627.95
2023-04-09T15:32:21.722Z,100629.52
2023-04-09T15:34:53.404Z,100628.64
2023-04-09T15:37:21.593Z,100629.35
2023-04-09T15:40:33.526Z,100629.98
2023-04-09T15:43:01.739Z,100629.77
2023-04-09T15:45:30.865Z,100629.04
2023-04-09T15:47:59.336Z,100632.08
2023-04-09T15:50:27.653Z,100632.14
2023-04-09T15:52:56.314Z,100633.27
2023-04-09T15:55:26.580Z,100631.04
2023-04-09T15:57:55.277Z,100633.99
2023-04-09T16:00:27.013Z,100633.08
2023-04-09T16:02:55.547Z,100633.42
2023-04-09T16:05:24.077Z,100642.77
2023-04-09T16:07:52.483Z,100644.48
2023-04-09T16:10:21.540Z,100642.73
2023-04-09T16:12:52.740Z,100646.54
2023-04-09T16:15:21.305Z,100644.00
2023-04-09T16:17:50.161Z,100644.65
2023-04-09T16:20:18.749Z,100647.45
2023-04-09T16:22:47.247Z,100648.10
2023-04-09T16:25:15.491Z,100650.75
2023-04-09T16:27:43.602Z,100652.77
2023-04-09T16:30:12.918Z,100653.07
2023-04-09T16:32:48.982Z,100652.63
2023-04-09T16:35:19.170Z,100653.21
2023-04-09T16:37:48.251Z,100649.29
2023-04-09T16:40:18.736Z,100650.09
2023-04-09T16:42:47.490Z,100648.81
2023-04-09T16:45:16.099Z,100648.14
2023-04-09T16:47:54.812Z,100646.27
2023-04-09T16:50:23.678Z,100650.70
2023-04-09T16:53:15.501Z,100647.06
2023-04-09T16:55:45.242Z,100650.23
2023-04-09T16:58:13.498Z,100652.33
2023-04-09T17:00:46.933Z,100650.55
2023-04-09T17:03:23.873Z,100653.95
2023-04-09T17:05:59.706Z,100650.33
2023-04-09T17:08:28.407Z,100648.63
2023-04-09T17:11:17.951Z,100653.11
2023-04-09T17:13:47.235Z,100650.56
2023-04-09T17:16:23.064Z,100649.45
2023-04-09T17:18:51.699Z,100653.63
2023-04-09T17:21:20.623Z,100654.83
2023-04-09T17:23:50.291Z,100652.16
2023-04-09T17:26:22.040Z,100657.11
2023-04-09T17:29:13.842Z,100657.52
2023-04-09T17:31:48.934Z,100661.96
2023-04-09T17:34:17.755Z,100667.95
2023-04-09T17:36:50.503Z,100673.19
2023-04-09T17:39:21.289Z,100675.14
2023-04-09T17:42:12.081Z,100674.44
2023-04-09T17:44:41.416Z,100677.65
2023-04-09T17:47:12.509Z,100675.75
2023-04-09T17:50:01.695Z,100680.81
2023-04-09T17:52:36.828Z,100681.73
2023-04-09T17:55:13.181Z,100686.05
2023-04-09T17:57:56.826Z,100688.72
2023-04-09T18:00:28.676Z,100685.16
2023-04-09T18:03:09.096Z,100687.08
2023-04-09T18:05:39.524Z,100684.62
2023-04-09T18:08:08.713Z,100689.14
2023-04-09T18:10:38.064Z,100690.00
2023-04-09T18:13:06.542Z,100689.41
2023-04-09T18:15:36.454Z,100690.44
2023-04-09T18:18:04.813Z,100690.61
2023-04-09T18:20:33.534Z,100696.19
2023-04-09T18:23:02.138Z,100696.98
2023-04-09T18:25:30.904Z,100700.77
2023-04-09T18:28:02.397Z,100705.37
2023-04-09T18:30:31.401Z,100708.39
2023-04-09T18:33:00.109Z,100710.01
2023-04-09T18:35:28.693Z,100707.79
2023-04-09T18:38:40.925Z,100713.61
2023-04-09T18:41:11.525Z,100716.64
2023-04-09T18:43:42.634Z,100720.77
2023-04-09T18:46:11.089Z,100724.52
2023-04-09T18:48:39.513Z,100725.27
2023-04-09T18:51:31.340Z,100728.30
2023-04-09T18:54:12.882Z,100727.99
2023-04-09T18:56:41.282Z,100728.77
2023-04-09T18:59:10.226Z,100725.88
2023-04-09T19:01:39.204Z,100728.54
2023-04-09T19:04:07.981Z,100730.17
2023-04-09T19:06:52.825Z,100730.44
2023-04-09T19:09:21.773Z,100732.98
2023-04-09T19:11:51.014Z,100733.42
2023-04-09T19:14:19.380Z,100737.47
2023-04-09T19:17:08.638Z,100732.79
2023-04-09T19:19:37.532Z,100732.13
2023-04-09T19:22:30.105Z,100728.56
2023-04-09T19:24:58.444Z,100733.01
2023-04-09T19:27:27.075Z,100736.40
2023-04-09T19:30:01.323Z,100739.27
2023-04-09T19:32:29.893Z,100740.23
2023-04-09T19:35:50.281Z,100745.02
2023-04-09T19:38:19.798Z,100737.95
2023-04-09T19:40:48.249Z,100737.62
2023-04-09T19:43:47.571Z,100737.66
2023-04-09T19:46:38.975Z,100739.33
2023-04-09T19:49:08.121Z,100738.39
2023-04-09T19:51:36.637Z,100736.95
2023-04-09T19:54:05.580Z,100731.65
2023-04-09T19:56:38.365Z,100729.45
2023-04-09T19:59:07.981Z,100725.70
2023-04-09T20:01:36.880Z,100719.33
2023-04-09T20:04:25.677Z,100716.08
2023-04-09T20:07:15.614Z,100714.73
2023-04-09T20:10:07.709Z,100719.66
2023-04-09T20:12:43.134Z,100726.52
2023-04-09T20:15:11.907Z,100732.65
2023-04-09T20:17:42.008Z,100729.56
2023-04-09T20:20:10.951Z,100730.84
2023-04-09T20:22:56.499Z,100730.35
2023-04-09T20:25:25.900Z,100731.20
2023-04-09T20:27:57.533Z,100729.30
2023-04-09T20:30:26.190Z,100722.66
2023-04-09T20:32:54.736Z,100723.73
2023-04-09T20:35:23.058Z,100726.90
2023-04-09T20:37:51.942Z,100729.00
2023-04-09T20:40:21.326Z,100730.54
2023-04-09T20:42:50.106Z,100731.88
2023-04-09T20:45:22.044Z,100736.02
2023-04-09T20:47:51.091Z,100742.94
2023-04-09T20:50:19.973Z,100740.45
2023-04-09T20:52:49.770Z,100734.98
2023-04-09T20:55:18.170Z,100738.04
2023-04-09T20:57:49.985Z,100733.30
2023-04-09T21:00:19.174Z,100724.01
2023-04-09T21:02:49.430Z,100723.10
2023-04-09T21:05:23.448Z,100727.42
2023-04-09T21:07:53.125Z,100729.80
2023-04-09T21:10:21.840Z,100732.23
2023-04-09T21:12:52.737Z,100730.32
2023-04-09T21:15:21.364Z,100733.77
2023-04-09T21:17:49.682Z,100733.22
2023-04-09T21:20:18.441Z,100731.25
2023-04-09T21:22:56.448Z,100732.23
2023-04-09T21:25:33.817Z,100733.91
2023-04-09T21:28:02.741Z,100730.38
2023-04-09T21:30:32.416Z,100733.48
2023-04-09T21:33:09.751Z,100736.19
2023-04-09T21:35:38.355Z,100739.83
2023-04-09T21:38:07.656Z,100746.42
2023-04-09T21:40:36.131Z,100748.49
2023-04-09T21:43:05.020Z,100744.09
2023-04-09T21:45:41.000Z,100743.55
2023-04-09T21:48:09.968Z,100741.63
2023-04-09T21:50:39.115Z,100744.21
2023-04-09T21:53:08.442Z,100745.42
2023-04-09T21:55:37.604Z,100748.52
2023-04-09T21:58:07.306Z,100755.83
2023-04-09T22:00:36.223Z,100753.00
2023-04-09T22:03:04.982Z,100749.13
2023-04-09T22:05:37.065Z,100745.77
2023-04-09T22:08:06.308Z,100747.31
2023-04-09T22:10:35.194Z,100740.85
2023-04-09T22:13:05.040Z,100733.56
2023-04-09T22:15:43.596Z,100734.44
2023-04-09T22:18:13.265Z,100735.13
2023-04-09T22:21:01.925Z,100736.47
2023-04-09T22:23:32.146Z,100731.91
2023-04-09T22:26:05.677Z,100730.02
2023-04-09T22:28:38.651Z,100729.35
2023-04-09T22:31:10.753Z,100728.52
2023-04-09T22:33:42.781Z,100727.98
2023-04-09T22:36:19.561Z,100728.61
2023-04-09T22:39:04.708Z,100730.68
2023-04-09T22:41:33.422Z,100729.52
2023-04-09T22:44:22.192Z,100733.89
2023-04-09T22:47:13.820Z,100729.92
2023-04-09T22:50:03.388Z,100724.55
2023-04-09T22:52:37.772Z,100723.53
2023-04-09T22:55:37.658Z,100725.67
2023-04-09T22:58:28.896Z,100728.29
2023-04-09T23:01:00.461Z,100732.30
2023-04-09T23:03:30.142Z,100735.21
2023-04-09T23:06:12.171Z,100736.73
2023-04-09T23:08:41.201Z,100737.85
2023-04-09T23:11:38.849Z,100738.73
2023-04-09T23:14:30.729Z,100734.80
2023-04-09T23:16:59.251Z,100734.13
2023-04-09T23:19:28.174Z,100734.44
2023-04-09T23:21:56.958Z,100728.98
2023-04-09T23:24:48.705Z,100725.79
2023-04-09T23:27:17.801Z,100721.35
2023-04-09T23:29:49.617Z,100717.98
2023-04-09T23:32:17.880Z,100718.26
2023-04-09T23:34:46.618Z,100722.17
2023-04-09T23:37:19.263Z,100720.68
2023-04-09T23:39:48.406Z,100721.44
2023-04-09T23:42:51.432Z,100720.79
2023-04-09T23:45:23.752Z,100726.23
2023-04-09T23:48:02.492Z,100724.90
2023-04-09T23:50:39.769Z,100723.90
2023-04-09T23:53:11.155Z,100720.84
2023-04-09T23:56:03.002Z,100718.33
2023-04-09T23:58:34.388Z,100717.49
